Time;durP1;ratioP1;P1;durP2;ratioP2;P2;SDS_P1;SDS_P2;PMS_P1;PMS_P2;Temp;Humidity;BMP_temperature;BMP_pressure;BME280_temperature;BME280_humidity;BME280_pressure;Samples;Min_cycle;Max_cycle;Signal;HPM_P1;HPM_P2
2022/03/30 00:01:58;;;;;;;18.93;17.03;;;11.30;95.60;;;;;;5042789;28;20658;-81
2022/03/30 00:04:25;;;;;;;21.27;19.17;;;11.60;96.00;;;;;;5041090;28;20638;-81
2022/03/30 00:06:52;;;;;;;19.57;17.50;;;11.20;96.00;;;;;;5044132;28;20626;-82
2022/03/30 00:09:19;;;;;;;19.90;17.27;;;11.20;97.10;;;;;;5040423;28;20633;-81
2022/03/30 00:11:47;;;;;;;20.03;17.80;;;11.50;98.00;;;;;;5040088;28;20657;-81
2022/03/30 00:14:14;;;;;;;17.93;16.10;;;11.20;97.50;;;;;;5043747;28;20621;-81
2022/03/30 00:16:41;;;;;;;19.17;16.87;;;11.20;97.80;;;;;;5039023;28;20622;-81
2022/03/30 00:19:07;;;;;;;19.50;17.63;;;11.60;98.30;;;;;;5042027;28;20639;-81
2022/03/30 00:21:34;;;;;;;19.83;17.83;;;11.60;98.10;;;;;;5042779;28;21192;-81
2022/03/30 00:24:01;;;;;;;20.00;17.33;;;11.60;98.30;;;;;;5039984;28;20664;-81
2022/03/30 00:26:27;;;;;;;19.67;17.63;;;11.40;98.40;;;;;;5041626;28;20633;-80
2022/03/30 00:28:55;;;;;;;18.87;17.03;;;11.30;98.20;;;;;;5042661;28;20632;-80
2022/03/30 00:31:22;;;;;;;21.30;17.93;;;11.30;99.00;;;;;;5041842;28;20665;-80
2022/03/30 00:33:51;;;;;;;19.90;16.87;;;11.30;99.90;;;;;;5040817;28;20969;-80
2022/03/30 00:36:18;;;;;;;19.93;17.20;;;11.60;99.90;;;;;;5044310;28;20635;-81
2022/03/30 00:38:45;;;;;;;23.03;17.97;;;11.50;99.90;;;;;;5034901;28;20629;-82
2022/03/30 00:41:11;;;;;;;19.40;17.20;;;11.60;99.90;;;;;;5041894;28;20652;-81
2022/03/30 00:43:38;;;;;;;19.57;17.40;;;11.50;99.90;;;;;;5041530;28;20657;-82
2022/03/30 00:46:07;;;;;;;20.33;18.10;;;11.30;99.90;;;;;;5038203;28;21192;-82
2022/03/30 00:48:34;;;;;;;19.63;17.10;;;11.30;99.90;;;;;;5042421;28;20629;-82
2022/03/30 00:51:01;;;;;;;17.83;15.97;;;11.50;99.90;;;;;;5040273;28;20756;-82
2022/03/30 00:53:27;;;;;;;20.97;18.57;;;11.30;99.90;;;;;;5043030;28;20870;-81
2022/03/30 00:55:55;;;;;;;22.23;19.70;;;11.40;99.90;;;;;;5044735;28;20630;-81
2022/03/30 00:58:22;;;;;;;18.70;16.80;;;11.40;99.20;;;;;;5039451;28;21283;-81
2022/03/30 01:00:49;;;;;;;19.47;17.30;;;11.20;99.80;;;;;;5042533;28;20830;-81
2022/03/30 01:03:17;;;;;;;18.40;16.50;;;11.30;99.90;;;;;;5041906;28;20674;-81
2022/03/30 01:05:44;;;;;;;20.33;18.33;;;11.60;99.90;;;;;;5037656;28;20618;-81
2022/03/30 01:08:11;;;;;;;19.83;17.70;;;11.80;99.90;;;;;;5042315;28;20986;-81
2022/03/30 01:10:38;;;;;;;18.90;15.93;;;11.90;99.90;;;;;;5041811;28;20657;-80
2022/03/30 01:13:07;;;;;;;21.03;16.30;;;11.60;99.90;;;;;;5045440;28;21031;-80
2022/03/30 01:15:34;;;;;;;20.87;18.60;;;11.70;99.90;;;;;;5045779;28;20629;-80
2022/03/30 01:18:02;;;;;;;20.70;18.43;;;11.40;99.90;;;;;;5037613;28;20987;-81
2022/03/30 01:20:30;;;;;;;21.47;18.27;;;11.30;99.90;;;;;;5040875;28;20657;-81
2022/03/30 01:22:58;;;;;;;22.87;20.50;;;11.70;99.90;;;;;;5045286;28;20662;-81
2022/03/30 01:25:26;;;;;;;26.40;19.17;;;11.60;99.90;;;;;;5046989;28;20642;-81
2022/03/30 01:27:52;;;;;;;23.30;18.73;;;11.60;99.90;;;;;;5045435;28;20630;-81
2022/03/30 01:33:07;;;;;;;26.03;20.63;;;11.70;99.90;;;;;;5044996;28;20566;-81
2022/03/30 01:35:35;;;;;;;24.53;20.00;;;11.30;99.90;;;;;;5046456;28;20637;-81
2022/03/30 01:38:03;;;;;;;23.67;19.37;;;11.30;99.90;;;;;;5044039;28;20617;-81
2022/03/30 01:40:30;;;;;;;22.43;20.13;;;11.70;99.60;;;;;;5045270;28;20650;-81
2022/03/30 01:42:57;;;;;;;27.80;20.27;;;11.70;99.50;;;;;;5044267;28;20666;-81
2022/03/30 01:45:23;;;;;;;23.80;19.87;;;11.60;99.10;;;;;;5037081;28;20621;-81
2022/03/30 01:47:55;;;;;;;24.07;19.90;;;11.70;99.10;;;;;;5041066;28;20618;-81
2022/03/30 01:50:22;;;;;;;21.17;18.10;;;11.70;98.70;;;;;;5048046;28;21318;-81
2022/03/30 01:52:49;;;;;;;24.57;19.53;;;11.40;98.50;;;;;;5046802;28;20829;-81
2022/03/30 01:55:18;;;;;;;21.87;19.50;;;11.70;98.50;;;;;;5043278;28;20629;-81
2022/03/30 01:57:45;;;;;;;26.87;20.07;;;11.80;98.70;;;;;;5044903;28;20641;-81
2022/03/30 02:00:13;;;;;;;24.00;19.60;;;11.70;98.50;;;;;;5043827;28;20661;-82
2022/03/30 02:02:41;;;;;;;21.20;19.00;;;11.70;98.50;;;;;;5044696;28;20760;-81
2022/03/30 02:05:09;;;;;;;25.20;19.40;;;11.60;99.00;;;;;;5043665;28;20640;-81
2022/03/30 02:07:36;;;;;;;20.67;18.17;;;11.60;99.80;;;;;;5045230;28;20987;-82
2022/03/30 02:10:04;;;;;;;21.87;18.23;;;11.40;99.80;;;;;;5042027;28;20649;-81
2022/03/30 02:12:32;;;;;;;22.37;20.17;;;11.80;99.20;;;;;;5045197;28;20767;-81
2022/03/30 02:14:59;;;;;;;21.50;19.23;;;11.20;98.50;;;;;;5042039;28;20634;-80
2022/03/30 02:17:27;;;;;;;19.87;17.27;;;11.30;98.80;;;;;;5042093;28;20648;-80
2022/03/30 02:19:53;;;;;;;20.73;18.60;;;11.60;99.90;;;;;;5041387;28;21283;-80
2022/03/30 02:22:21;;;;;;;21.60;19.30;;;11.60;99.90;;;;;;5044056;28;20618;-80
2022/03/30 02:24:47;;;;;;;19.97;18.00;;;11.70;99.90;;;;;;5041905;28;20610;-80
2022/03/30 02:27:14;;;;;;;20.93;18.83;;;11.30;99.90;;;;;;5041294;28;20650;-81
2022/03/30 02:29:42;;;;;;;22.57;18.50;;;11.40;99.90;;;;;;5045368;28;20657;-81
2022/03/30 02:32:10;;;;;;;25.60;19.67;;;11.80;99.90;;;;;;5043915;28;20632;-80
2022/03/30 02:34:36;;;;;;;23.93;18.50;;;11.70;99.60;;;;;;5044029;28;21127;-80
2022/03/30 02:37:03;;;;;;;22.10;19.90;;;11.80;99.00;;;;;;5043022;28;20625;-81
2022/03/30 02:39:30;;;;;;;22.53;19.43;;;11.80;99.00;;;;;;5044494;28;20661;-80
2022/03/30 02:41:57;;;;;;;21.37;18.83;;;11.80;99.70;;;;;;5045328;28;20628;-80
2022/03/30 02:44:24;;;;;;;20.93;18.77;;;11.40;99.90;;;;;;5044719;28;20661;-81
2022/03/30 02:46:52;;;;;;;20.27;18.13;;;11.50;99.90;;;;;;5044755;28;20634;-81
2022/03/30 02:49:18;;;;;;;20.83;18.53;;;11.20;99.90;;;;;;5045337;28;20945;-81
2022/03/30 02:51:45;;;;;;;22.77;18.10;;;11.70;99.90;;;;;;5045620;28;20634;-81
2022/03/30 02:54:12;;;;;;;21.43;17.90;;;11.40;99.90;;;;;;5039652;28;20605;-80
2022/03/30 02:56:39;;;;;;;30.60;19.17;;;11.10;99.90;;;;;;5041312;28;20638;-80
2022/03/30 02:59:06;;;;;;;27.67;19.23;;;11.40;99.90;;;;;;5044523;28;20637;-79
2022/03/30 03:01:33;;;;;;;21.23;17.47;;;11.10;99.90;;;;;;5042745;28;20658;-79
2022/03/30 03:04:02;;;;;;;22.03;18.13;;;10.90;99.90;;;;;;5041742;28;20697;-81
2022/03/30 03:06:28;;;;;;;22.30;18.60;;;11.30;99.90;;;;;;5042429;28;20696;-81
2022/03/30 03:08:57;;;;;;;21.37;18.33;;;11.20;99.90;;;;;;5044062;28;20626;-80
2022/03/30 03:11:23;;;;;;;19.03;17.17;;;11.20;99.90;;;;;;5042566;28;20653;-80
2022/03/30 03:13:50;;;;;;;21.90;17.13;;;11.10;99.90;;;;;;5040959;28;20900;-82
2022/03/30 03:16:18;;;;;;;21.80;17.80;;;11.40;99.90;;;;;;5044459;28;21613;-81
2022/03/30 03:18:44;;;;;;;24.73;17.73;;;11.00;99.90;;;;;;5043208;28;21276;-80
2022/03/30 03:21:13;;;;;;;21.63;18.20;;;11.30;99.90;;;;;;5042181;28;20677;-80
2022/03/30 03:23:41;;;;;;;23.00;18.50;;;11.30;99.90;;;;;;5041199;28;21064;-80
2022/03/30 03:26:07;;;;;;;22.00;19.40;;;11.00;99.90;;;;;;5042945;28;20988;-81
2022/03/30 03:28:34;;;;;;;20.67;17.87;;;11.00;99.90;;;;;;5039734;28;21168;-81
2022/03/30 03:31:01;;;;;;;24.73;19.23;;;11.00;99.90;;;;;;5046028;28;21043;-81
2022/03/30 03:33:28;;;;;;;19.83;17.87;;;11.10;99.90;;;;;;5036423;28;20626;-81
2022/03/30 03:35:54;;;;;;;20.87;16.80;;;11.10;99.90;;;;;;5046647;28;20626;-82
2022/03/30 03:38:23;;;;;;;21.83;17.70;;;10.70;99.90;;;;;;5039319;28;20657;-82
2022/03/30 03:40:50;;;;;;;23.77;18.30;;;10.80;99.90;;;;;;5043673;28;20658;-82
2022/03/30 03:43:17;;;;;;;22.37;19.87;;;11.10;99.90;;;;;;5041321;28;20792;-81
2022/03/30 03:45:44;;;;;;;28.40;20.70;;;10.80;99.90;;;;;;5044249;28;21214;-81
2022/03/30 03:48:11;;;;;;;22.23;20.00;;;11.10;99.90;;;;;;5040918;28;20625;-80
2022/03/30 03:50:37;;;;;;;22.50;19.00;;;10.70;99.90;;;;;;5043582;28;20652;-80
2022/03/30 03:53:04;;;;;;;19.80;17.77;;;11.10;99.90;;;;;;5040570;28;20640;-80
2022/03/30 03:55:36;;;;;;;21.10;19.00;;;11.20;99.90;;;;;;5040022;28;20762;-80
2022/03/30 03:58:05;;;;;;;22.17;19.70;;;11.00;99.90;;;;;;5043130;28;20653;-80
2022/03/30 04:00:33;;;;;;;27.13;19.93;;;10.80;99.90;;;;;;5041715;28;20661;-80
2022/03/30 04:03:00;;;;;;;30.73;22.00;;;11.10;99.90;;;;;;5042466;28;21034;-80
2022/03/30 04:05:27;;;;;;;24.87;22.37;;;10.80;99.90;;;;;;5038415;28;20644;-80
2022/03/30 04:07:54;;;;;;;45.63;40.70;;;11.10;99.90;;;;;;5042703;28;20649;-80
2022/03/30 04:10:21;;;;;;;40.17;35.83;;;11.30;99.90;;;;;;5039174;28;21018;-80
2022/03/30 04:12:49;;;;;;;73.43;63.63;;;11.20;99.90;;;;;;5040306;28;20633;-79
2022/03/30 04:15:16;;;;;;;36.00;30.83;;;11.10;99.90;;;;;;5041770;28;20644;-79
2022/03/30 04:17:45;;;;;;;31.83;28.17;;;11.20;99.90;;;;;;5040505;28;20638;-80
2022/03/30 04:20:13;;;;;;;31.10;27.80;;;11.00;99.90;;;;;;5040025;28;20692;-80
2022/03/30 04:22:40;;;;;;;32.63;29.43;;;11.20;99.90;;;;;;5039863;28;20715;-80
2022/03/30 04:25:08;;;;;;;37.70;32.00;;;11.20;99.90;;;;;;5041551;28;20999;-80
2022/03/30 04:27:35;;;;;;;36.37;32.87;;;11.20;99.90;;;;;;5044650;28;20622;-81
2022/03/30 04:30:04;;;;;;;37.03;33.00;;;11.10;99.90;;;;;;5040253;28;21003;-81
2022/03/30 04:32:31;;;;;;;41.43;37.13;;;11.00;99.90;;;;;;5037919;28;20703;-80
2022/03/30 04:34:58;;;;;;;32.23;28.77;;;10.90;99.90;;;;;;5039098;28;20632;-80
2022/03/30 04:37:25;;;;;;;26.20;23.40;;;10.60;99.90;;;;;;5042043;28;20633;-80
2022/03/30 04:39:52;;;;;;;26.37;22.80;;;10.60;99.90;;;;;;5038010;28;20680;-81
2022/03/30 04:42:20;;;;;;;29.17;22.77;;;11.00;99.90;;;;;;5040828;28;20750;-81
2022/03/30 04:44:47;;;;;;;27.13;24.23;;;10.70;99.90;;;;;;5041184;28;20656;-81
2022/03/30 04:47:15;;;;;;;29.47;25.27;;;10.80;99.90;;;;;;5043575;28;20640;-81
2022/03/30 04:49:42;;;;;;;29.00;25.90;;;10.90;99.90;;;;;;5047972;28;20641;-81
2022/03/30 04:52:10;;;;;;;26.73;23.93;;;10.50;99.90;;;;;;5048232;28;20661;-81
2022/03/30 04:54:36;;;;;;;28.70;25.70;;;10.90;99.90;;;;;;5046259;28;20941;-81
2022/03/30 04:57:04;;;;;;;27.30;24.37;;;10.50;99.90;;;;;;5045350;28;20636;-81
2022/03/30 04:59:30;;;;;;;25.80;23.23;;;11.00;99.90;;;;;;5046928;28;20981;-81
2022/03/30 05:01:57;;;;;;;27.90;23.70;;;10.90;99.90;;;;;;5045062;28;20646;-81
2022/03/30 05:04:25;;;;;;;25.90;23.23;;;10.60;99.90;;;;;;5047650;28;20660;-81
2022/03/30 05:06:52;;;;;;;28.37;23.57;;;10.40;99.90;;;;;;5045003;28;20633;-81
2022/03/30 05:09:22;;;;;;;26.80;24.20;;;10.90;99.90;;;;;;5043762;28;20656;-80
2022/03/30 05:11:50;;;;;;;25.00;21.97;;;10.50;99.90;;;;;;5048383;28;20632;-81
2022/03/30 05:14:17;;;;;;;30.13;23.33;;;10.80;99.90;;;;;;5047432;28;21262;-80
2022/03/30 05:16:44;;;;;;;28.97;23.10;;;10.40;99.90;;;;;;5047980;28;20621;-80
2022/03/30 05:19:13;;;;;;;31.90;24.07;;;10.60;99.90;;;;;;5048212;28;20954;-80
2022/03/30 05:21:41;;;;;;;24.40;21.80;;;10.80;99.90;;;;;;5046084;28;20633;-80
2022/03/30 05:24:08;;;;;;;25.63;23.13;;;10.80;99.90;;;;;;5044916;28;20657;-79
2022/03/30 05:26:35;;;;;;;24.67;22.13;;;10.30;99.90;;;;;;5046482;28;21191;-80
2022/03/30 05:29:01;;;;;;;24.77;22.10;;;10.20;99.90;;;;;;5048058;28;20716;-79
2022/03/30 05:31:28;;;;;;;25.27;22.37;;;10.30;99.90;;;;;;5049264;28;20665;-81
2022/03/30 05:33:55;;;;;;;25.07;22.40;;;10.40;99.90;;;;;;5046569;28;21174;-79
2022/03/30 05:36:22;;;;;;;23.50;21.00;;;10.60;99.90;;;;;;5041711;28;21052;-80
2022/03/30 05:38:51;;;;;;;27.97;20.50;;;10.60;99.90;;;;;;5043901;28;20626;-80
2022/03/30 05:41:18;;;;;;;22.77;18.73;;;10.60;99.90;;;;;;5047230;28;20666;-80
2022/03/30 05:43:45;;;;;;;26.27;19.20;;;10.40;99.90;;;;;;5045048;28;20660;-79
2022/03/30 05:46:12;;;;;;;24.37;18.13;;;10.60;99.90;;;;;;5048686;28;20641;-81
2022/03/30 05:48:39;;;;;;;25.20;18.20;;;10.30;99.90;;;;;;5048853;28;20629;-81
2022/03/30 05:51:06;;;;;;;23.03;18.03;;;10.50;99.90;;;;;;5050269;28;20665;-81
2022/03/30 05:53:33;;;;;;;22.40;17.80;;;10.40;99.90;;;;;;5041773;28;20647;-81
2022/03/30 05:56:01;;;;;;;23.83;18.27;;;10.40;99.90;;;;;;5049493;28;20891;-81
2022/03/30 05:58:28;;;;;;;23.90;17.00;;;10.50;99.90;;;;;;5036326;28;20614;-82
2022/03/30 06:00:55;;;;;;;25.30;17.10;;;10.80;99.90;;;;;;5040463;28;20662;-80
2022/03/30 06:03:22;;;;;;;22.27;16.83;;;10.40;99.90;;;;;;5042594;28;20630;-81
2022/03/30 06:05:50;;;;;;;31.80;16.57;;;10.40;99.90;;;;;;5047046;28;20629;-79
2022/03/30 06:08:17;;;;;;;23.37;16.03;;;10.40;99.90;;;;;;5042957;28;20703;-81
2022/03/30 06:10:44;;;;;;;28.13;17.70;;;10.70;99.90;;;;;;5046576;28;20650;-81
2022/03/30 06:13:12;;;;;;;21.13;16.40;;;10.70;99.90;;;;;;5044645;28;20652;-81
2022/03/30 06:15:39;;;;;;;21.70;17.80;;;10.70;99.90;;;;;;5043167;28;20615;-81
2022/03/30 06:18:10;;;;;;;25.17;20.03;;;10.50;99.90;;;;;;5041423;28;20614;-81
2022/03/30 06:20:37;;;;;;;26.83;20.80;;;10.70;99.90;;;;;;5052440;28;20693;-81
2022/03/30 06:23:05;;;;;;;30.57;19.97;;;10.10;99.90;;;;;;5046170;28;20637;-81
2022/03/30 06:25:32;;;;;;;26.00;21.57;;;10.10;99.90;;;;;;5033819;28;20715;-81
2022/03/30 06:28:00;;;;;;;28.63;21.47;;;10.20;99.90;;;;;;5044269;28;20636;-81
2022/03/30 06:30:28;;;;;;;27.10;22.20;;;10.40;99.90;;;;;;5043360;28;21223;-81
2022/03/30 06:32:55;;;;;;;27.60;22.33;;;10.40;99.90;;;;;;5044617;28;20626;-80
2022/03/30 06:35:23;;;;;;;25.80;22.73;;;9.90;99.90;;;;;;5039883;28;20717;-81
2022/03/30 06:37:50;;;;;;;26.60;23.73;;;9.90;99.90;;;;;;5035166;28;20654;-80
2022/03/30 06:40:18;;;;;;;26.13;23.50;;;10.20;99.90;;;;;;5042217;28;20682;-80
2022/03/30 06:42:45;;;;;;;29.73;24.90;;;10.00;99.90;;;;;;5040105;28;20598;-81
2022/03/30 06:45:12;;;;;;;29.10;24.27;;;9.90;99.90;;;;;;5041481;28;21094;-81
2022/03/30 06:47:41;;;;;;;25.70;23.07;;;10.20;99.90;;;;;;5043514;28;20625;-81
2022/03/30 06:50:09;;;;;;;27.27;24.30;;;9.90;99.90;;;;;;5042309;28;20645;-81
2022/03/30 06:52:36;;;;;;;27.57;24.60;;;10.20;99.90;;;;;;5044447;28;20620;-81
2022/03/30 06:55:05;;;;;;;31.60;23.93;;;9.90;99.90;;;;;;5042743;28;20586;-81
2022/03/30 06:57:32;;;;;;;28.70;25.30;;;10.30;99.90;;;;;;5042017;28;21187;-81
2022/03/30 06:59:59;;;;;;;26.53;23.70;;;9.90;99.90;;;;;;5041034;28;20681;-81
2022/03/30 07:02:25;;;;;;;28.83;24.80;;;10.30;99.90;;;;;;5043115;28;20687;-81
2022/03/30 07:04:53;;;;;;;26.47;22.83;;;10.10;99.90;;;;;;5038493;28;20674;-81
2022/03/30 07:10:18;;;;;;;28.03;23.50;;;10.00;99.90;;;;;;5042379;28;21199;-80
2022/03/30 07:12:46;;;;;;;28.43;25.83;;;10.40;99.90;;;;;;5038631;28;20617;-79
2022/03/30 07:15:14;;;;;;;29.07;23.97;;;10.30;99.90;;;;;;5039484;28;20656;-80
2022/03/30 07:17:44;;;;;;;26.50;23.60;;;10.30;99.90;;;;;;5038593;28;21352;-80
2022/03/30 07:20:13;;;;;;;29.50;25.23;;;10.20;99.90;;;;;;5039514;28;20636;-80
2022/03/30 07:22:40;;;;;;;29.30;25.53;;;10.20;99.90;;;;;;5044838;28;20716;-80
2022/03/30 07:25:08;;;;;;;27.83;24.63;;;10.30;99.90;;;;;;5042302;28;20661;-79
2022/03/30 07:27:35;;;;;;;29.53;24.13;;;10.00;99.90;;;;;;5033460;28;20705;-80
2022/03/30 07:30:02;;;;;;;27.03;24.20;;;10.10;99.90;;;;;;5044770;28;21037;-80
2022/03/30 07:32:28;;;;;;;26.87;23.70;;;10.00;99.90;;;;;;5039411;28;20626;-80
2022/03/30 07:34:55;;;;;;;33.20;26.10;;;10.20;99.90;;;;;;5041649;28;20627;-79
2022/03/30 07:37:23;;;;;;;29.50;25.10;;;10.00;99.90;;;;;;5042310;28;20673;-79
2022/03/30 07:39:51;;;;;;;33.37;24.67;;;9.80;99.90;;;;;;5041376;28;20629;-79
2022/03/30 07:42:17;;;;;;;31.03;25.00;;;10.10;99.90;;;;;;5038158;28;20666;-80
2022/03/30 07:44:44;;;;;;;25.03;22.67;;;10.10;99.90;;;;;;5038466;28;20669;-79
2022/03/30 07:47:11;;;;;;;28.77;23.13;;;10.30;99.90;;;;;;5041538;28;20661;-79
2022/03/30 07:49:38;;;;;;;26.60;23.43;;;10.30;99.90;;;;;;5042663;28;20787;-80
2022/03/30 07:52:05;;;;;;;27.20;22.37;;;10.00;99.90;;;;;;5041591;28;20606;-80
2022/03/30 07:54:33;;;;;;;29.20;24.30;;;10.40;99.90;;;;;;5038299;28;20618;-80
2022/03/30 07:57:00;;;;;;;34.67;25.27;;;10.30;99.90;;;;;;5042900;28;20630;-80
2022/03/30 07:59:27;;;;;;;39.10;29.87;;;10.30;99.90;;;;;;5041316;28;20622;-80
2022/03/30 08:01:54;;;;;;;33.37;28.00;;;10.40;99.90;;;;;;5041388;28;20967;-80
2022/03/30 08:04:21;;;;;;;26.37;22.27;;;10.00;99.90;;;;;;5040525;28;20781;-80
2022/03/30 08:06:47;;;;;;;29.10;23.70;;;10.30;99.90;;;;;;5040570;28;20622;-81
2022/03/30 08:09:14;;;;;;;36.03;23.20;;;10.10;99.90;;;;;;5036374;28;20633;-80
2022/03/30 08:11:42;;;;;;;34.10;20.47;;;10.30;99.90;;;;;;5039711;28;21204;-80
2022/03/30 08:14:11;;;;;;;31.63;22.70;;;10.50;99.90;;;;;;5037401;28;20662;-81
2022/03/30 08:16:39;;;;;;;29.20;23.47;;;10.40;99.90;;;;;;5036606;28;20665;-81
2022/03/30 08:19:06;;;;;;;32.27;23.10;;;10.40;99.90;;;;;;5042176;28;20654;-81
2022/03/30 08:24:34;;;;;;;25.13;22.30;;;10.50;99.90;;;;;;4979602;28;20643;-80
2022/03/30 08:27:04;;;;;;;28.40;20.30;;;10.50;99.90;;;;;;4980314;28;20608;-82
2022/03/30 08:29:31;;;;;;;24.10;20.40;;;10.70;99.90;;;;;;5008231;28;21184;-81
2022/03/30 08:31:57;;;;;;;29.90;20.13;;;10.20;99.90;;;;;;5043331;28;20641;-80
2022/03/30 08:34:25;;;;;;;29.73;19.43;;;10.50;99.90;;;;;;5040058;28;20610;-80
2022/03/30 08:36:51;;;;;;;22.13;18.93;;;10.70;99.90;;;;;;5037023;28;20618;-80
2022/03/30 08:39:18;;;;;;;26.33;20.80;;;10.30;99.90;;;;;;5035179;28;20621;-80
2022/03/30 08:41:47;;;;;;;27.40;18.90;;;10.40;99.90;;;;;;5036744;28;20807;-81
2022/03/30 08:44:17;;;;;;;27.80;19.83;;;10.60;99.90;;;;;;5035359;28;20622;-81
2022/03/30 08:46:46;;;;;;;27.30;19.13;;;10.50;99.90;;;;;;5035703;28;20729;-81
2022/03/30 08:49:15;;;;;;;28.10;21.07;;;10.50;99.90;;;;;;5033683;28;21320;-82
2022/03/30 08:51:47;;;;;;;24.40;19.80;;;10.60;99.90;;;;;;5037733;28;20709;-82
2022/03/30 08:54:15;;;;;;;29.53;19.53;;;10.20;99.90;;;;;;5032024;28;20626;-82
2022/03/30 08:56:42;;;;;;;27.93;20.33;;;10.60;99.90;;;;;;5037120;28;20634;-82
2022/03/30 08:59:11;;;;;;;32.87;19.20;;;10.60;99.90;;;;;;5039972;28;20649;-82
2022/03/30 09:01:41;;;;;;;25.00;20.20;;;10.70;99.90;;;;;;5036837;28;20622;-82
2022/03/30 09:04:11;;;;;;;25.27;22.60;;;10.40;99.90;;;;;;5036390;28;20649;-80
2022/03/30 09:06:41;;;;;;;29.67;19.60;;;10.70;99.90;;;;;;5035070;28;20677;-80
2022/03/30 09:09:09;;;;;;;28.63;19.77;;;10.80;99.90;;;;;;5040608;28;20972;-81
2022/03/30 09:11:52;;;;;;;31.07;22.70;;;10.90;99.90;;;;;;5035529;28;20614;-79
2022/03/30 09:14:21;;;;;;;27.53;18.37;;;10.80;99.90;;;;;;5035781;28;20745;-80
2022/03/30 09:16:50;;;;;;;25.30;17.73;;;10.70;99.90;;;;;;5041586;28;20631;-79
2022/03/30 09:19:19;;;;;;;28.37;17.90;;;10.60;99.90;;;;;;5031087;28;20637;-80
2022/03/30 09:21:48;;;;;;;24.87;18.40;;;10.60;99.90;;;;;;5038520;28;21018;-81
2022/03/30 09:24:16;;;;;;;22.80;18.73;;;10.80;99.90;;;;;;5033996;28;20634;-81
2022/03/30 09:26:43;;;;;;;27.00;17.30;;;10.80;99.90;;;;;;5037648;28;21202;-81
2022/03/30 09:29:11;;;;;;;24.87;18.10;;;10.90;99.90;;;;;;5030065;28;20681;-81
2022/03/30 09:31:41;;;;;;;25.70;16.60;;;10.40;99.90;;;;;;5036557;28;20704;-81
2022/03/30 09:34:10;;;;;;;22.53;16.93;;;10.80;99.90;;;;;;5035504;28;20941;-81
2022/03/30 09:36:38;;;;;;;29.47;18.07;;;10.70;99.90;;;;;;5042347;28;20625;-81
2022/03/30 09:39:07;;;;;;;27.60;17.97;;;10.60;99.90;;;;;;5039727;28;20662;-81
2022/03/30 09:41:46;;;;;;;27.13;18.90;;;10.50;99.90;;;;;;5040772;28;20613;-81
2022/03/30 09:44:13;;;;;;;21.00;16.23;;;10.80;99.90;;;;;;5037834;28;20631;-81
2022/03/30 09:46:52;;;;;;;32.47;17.97;;;10.80;99.90;;;;;;5039072;28;21001;-81
2022/03/30 09:49:35;;;;;;;25.17;16.63;;;10.80;99.90;;;;;;5046124;28;20617;-81
2022/03/30 09:52:02;;;;;;;22.87;17.43;;;10.80;99.90;;;;;;5045573;28;20617;-80
2022/03/30 09:54:39;;;;;;;21.33;18.67;;;10.80;99.90;;;;;;5042801;28;20614;-80
2022/03/30 09:57:11;;;;;;;22.83;17.60;;;10.60;99.90;;;;;;5044716;28;20617;-81
2022/03/30 09:59:56;;;;;;;26.40;18.90;;;11.10;99.90;;;;;;5042613;28;20702;-82
2022/03/30 10:02:23;;;;;;;24.17;17.60;;;10.90;99.90;;;;;;5042371;28;21987;-82
2022/03/30 10:04:52;;;;;;;23.10;16.80;;;11.00;99.90;;;;;;5039073;28;20748;-81
2022/03/30 10:07:20;;;;;;;22.20;16.23;;;11.00;99.90;;;;;;5044456;28;20657;-81
2022/03/30 10:09:48;;;;;;;32.53;17.33;;;11.10;99.90;;;;;;5043074;28;20717;-81
2022/03/30 10:12:17;;;;;;;30.47;18.53;;;10.70;99.90;;;;;;5044908;28;20724;-81
2022/03/30 10:14:45;;;;;;;34.63;19.03;;;11.00;99.90;;;;;;5039070;28;21288;-81
2022/03/30 10:17:13;;;;;;;21.50;16.47;;;11.20;99.90;;;;;;5043839;28;20653;-81
2022/03/30 10:19:42;;;;;;;27.87;17.27;;;10.80;99.90;;;;;;5040860;28;20628;-81
2022/03/30 10:22:23;;;;;;;22.13;17.70;;;10.90;99.90;;;;;;5046908;28;20625;-81
2022/03/30 10:25:17;;;;;;;25.80;16.70;;;11.20;99.90;;;;;;5039411;28;21100;-81
2022/03/30 10:27:53;;;;;;;26.60;18.40;;;10.90;99.90;;;;;;5038969;28;21328;-81
2022/03/30 10:30:26;;;;;;;29.20;16.60;;;11.20;99.90;;;;;;5037743;28;20737;-81
2022/03/30 10:32:57;;;;;;;27.20;16.90;;;11.10;99.90;;;;;;5041654;28;20642;-81
2022/03/30 10:35:38;;;;;;;25.97;17.97;;;11.50;99.90;;;;;;5038688;28;21004;-82
2022/03/30 10:38:07;;;;;;;30.17;17.73;;;11.50;99.90;;;;;;5035444;28;21043;-81
2022/03/30 10:40:34;;;;;;;28.33;17.17;;;11.40;99.90;;;;;;5037741;28;20665;-81
2022/03/30 10:43:06;;;;;;;20.07;15.70;;;11.20;99.90;;;;;;5042552;28;20628;-82
2022/03/30 10:45:42;;;;;;;26.53;15.53;;;11.30;99.90;;;;;;5035055;28;20676;-82
2022/03/30 10:48:12;;;;;;;30.30;18.27;;;11.40;99.90;;;;;;5038251;28;21090;-81
2022/03/30 10:50:41;;;;;;;26.50;16.27;;;11.20;99.90;;;;;;5037489;28;20962;-81
2022/03/30 10:53:42;;;;;;;28.57;18.60;;;11.60;99.90;;;;;;5033950;28;21376;-81
2022/03/30 10:56:28;;;;;;;24.57;16.40;;;11.60;99.90;;;;;;5034464;28;21178;-81
2022/03/30 10:59:12;;;;;;;24.77;16.93;;;11.80;99.90;;;;;;5036149;28;21047;-81
2022/03/30 11:01:41;;;;;;;26.00;17.00;;;12.00;99.90;;;;;;5038443;28;21184;-82
2022/03/30 11:04:17;;;;;;;25.87;16.60;;;12.00;99.90;;;;;;5037770;28;20628;-81
2022/03/30 11:06:45;;;;;;;26.77;16.50;;;12.00;99.90;;;;;;5041412;28;20685;-82
2022/03/30 11:09:22;;;;;;;21.80;16.50;;;12.20;99.90;;;;;;5039939;28;20651;-83
2022/03/30 11:11:58;;;;;;;24.63;15.00;;;12.30;99.90;;;;;;5034767;28;20749;-82
2022/03/30 11:14:26;;;;;;;23.30;14.57;;;11.90;99.90;;;;;;5038335;28;20736;-82
2022/03/30 11:16:54;;;;;;;21.20;15.07;;;12.40;99.90;;;;;;5040143;28;20804;-81
2022/03/30 11:19:28;;;;;;;22.90;14.30;;;12.70;99.90;;;;;;5040124;28;20703;-81
2022/03/30 11:22:02;;;;;;;19.43;14.90;;;12.60;99.90;;;;;;5038661;28;20630;-82
2022/03/30 11:24:31;;;;;;;27.53;14.93;;;12.80;99.90;;;;;;5041978;28;20969;-82
2022/03/30 11:27:19;;;;;;;24.23;15.30;;;12.80;99.90;;;;;;5039810;28;20666;-82
2022/03/30 11:29:52;;;;;;;20.03;13.70;;;12.90;99.90;;;;;;5037658;28;20629;-82
2022/03/30 11:32:54;;;;;;;28.03;14.50;;;12.80;99.90;;;;;;5038093;28;20643;-81
2022/03/30 11:35:25;;;;;;;23.40;14.43;;;12.70;99.90;;;;;;5037007;28;20978;-81
2022/03/30 11:38:03;;;;;;;25.67;16.00;;;12.70;99.90;;;;;;5038066;28;20745;-81
2022/03/30 11:40:34;;;;;;;19.57;14.70;;;12.80;99.90;;;;;;5038788;28;20634;-81
2022/03/30 11:43:01;;;;;;;18.80;13.93;;;12.60;99.90;;;;;;5040319;28;20622;-81
2022/03/30 11:45:30;;;;;;;30.20;15.57;;;12.70;99.90;;;;;;5035712;28;20767;-81
2022/03/30 11:48:01;;;;;;;26.23;15.27;;;12.60;99.90;;;;;;5038489;28;21207;-82
2022/03/30 11:50:29;;;;;;;18.90;14.53;;;12.70;99.90;;;;;;5041203;28;20621;-81
2022/03/30 11:52:57;;;;;;;25.93;14.80;;;12.70;99.90;;;;;;5042148;28;20605;-82
2022/03/30 11:55:25;;;;;;;24.40;14.80;;;12.70;99.90;;;;;;5037810;28;21471;-82
2022/03/30 11:57:54;;;;;;;24.40;13.40;;;12.80;99.90;;;;;;5034134;28;20745;-81
2022/03/30 12:00:24;;;;;;;26.60;16.00;;;12.80;99.90;;;;;;5044600;28;20622;-81
2022/03/30 12:02:51;;;;;;;25.87;15.77;;;12.60;99.90;;;;;;5041008;28;20634;-81
2022/03/30 12:05:18;;;;;;;26.17;15.13;;;12.70;99.90;;;;;;5035174;28;20622;-81
2022/03/30 12:07:45;;;;;;;27.50;14.17;;;12.30;99.90;;;;;;5043972;28;20649;-81
2022/03/30 12:10:15;;;;;;;27.57;14.53;;;12.80;99.90;;;;;;5037764;28;20733;-81
2022/03/30 12:12:43;;;;;;;27.50;14.60;;;12.70;99.90;;;;;;5042494;28;20994;-81
2022/03/30 12:15:16;;;;;;;19.37;15.73;;;12.40;99.90;;;;;;5033810;28;20629;-81
2022/03/30 12:17:43;;;;;;;26.60;14.10;;;12.70;99.90;;;;;;5038600;28;20691;-82
2022/03/30 12:20:23;;;;;;;19.07;13.97;;;12.80;99.90;;;;;;5038424;28;20981;-81
2022/03/30 12:22:58;;;;;;;26.90;15.50;;;12.80;99.90;;;;;;5037398;28;20632;-81
2022/03/30 12:25:26;;;;;;;19.50;13.13;;;12.90;99.90;;;;;;5038749;28;21434;-81
2022/03/30 12:27:53;;;;;;;22.20;14.23;;;12.90;99.90;;;;;;5038883;28;20663;-82
2022/03/30 12:30:22;;;;;;;18.47;12.40;;;13.00;99.90;;;;;;5036061;28;22241;-81
2022/03/30 12:32:50;;;;;;;27.37;15.17;;;13.20;99.90;;;;;;5040981;28;20638;-81
2022/03/30 12:35:17;;;;;;;20.23;13.73;;;13.30;99.90;;;;;;5040577;28;21274;-81
2022/03/30 12:37:46;;;;;;;18.47;12.83;;;13.40;99.90;;;;;;5042449;28;20673;-80
2022/03/30 12:40:15;;;;;;;19.50;14.50;;;13.40;99.90;;;;;;5043008;28;20669;-81
2022/03/30 12:42:44;;;;;;;18.13;15.03;;;13.40;99.90;;;;;;5041447;28;20701;-83
2022/03/30 12:45:14;;;;;;;21.33;14.90;;;13.50;99.90;;;;;;5037160;28;20629;-82